Terminal Aerodrome Forecast
Issued by NWS Rapid City, SD

Home | Current Version | Previous Version | Text Only | Print | Product List | Glossary Off
Versions: 1 2 3 4 5 6 7 8 9 10 11 12 13 14 15 16

000
FTUS43 KUNR 230200 AAA
TAFRAP
TAF AMD
KRAP 230226Z 2302/2324 VRB05KT P6SM SCT100 OVC150
     FM230400 32022G36KT P6SM BKN070
     FM230800 32020G30KT P6SM SCT150
     FM231800 32030G42KT P6SM BKN100=

USA.gov is the U.S. government's official web portal to all federal, state and local government web resources and services.